地図

経路データ

SID SEASON NUMBER BASIN SUBBASIN NAME ISO_TIME NATURE LAT LON WMO_WIND WMO_PRES WMO_AGENCY TRACK_TYPE DIST2LAND LANDFALL IFLAG USA_AGENCY USA_ATCF_ID USA_LAT USA_LON USA_RECORD USA_STATUS USA_WIND USA_PRES USA_SSHS USA_R34_NE USA_R34_SE USA_R34_SW USA_R34_NW USA_R50_NE USA_R50_SE USA_R50_SW USA_R50_NW USA_R64_NE USA_R64_SE USA_R64_SW USA_R64_NW USA_POCI USA_ROCI USA_RMW USA_EYE TOKYO_LAT TOKYO_LON TOKYO_GRADE TOKYO_WIND TOKYO_PRES TOKYO_R50_DIR TOKYO_R50_LONG TOKYO_R50_SHORT TOKYO_R30_DIR TOKYO_R30_LONG TOKYO_R30_SHORT TOKYO_LAND CMA_LAT CMA_LON CMA_CAT CMA_WIND CMA_PRES HKO_LAT HKO_LON HKO_CAT HKO_WIND HKO_PRES NEWDELHI_LAT NEWDELHI_LON NEWDELHI_GRADE NEWDELHI_WIND NEWDELHI_PRES NEWDELHI_CI NEWDELHI_DP NEWDELHI_POCI REUNION_LAT REUNION_LON REUNION_TYPE REUNION_WIND REUNION_PRES REUNION_TNUM REUNION_CI REUNION_RMW REUNION_R34_NE REUNION_R34_SE REUNION_R34_SW REUNION_R34_NW REUNION_R50_NE REUNION_R50_SE REUNION_R50_SW REUNION_R50_NW REUNION_R64_NE REUNION_R64_SE REUNION_R64_SW REUNION_R64_NW BOM_LAT BOM_LON BOM_TYPE BOM_WIND BOM_PRES BOM_TNUM BOM_CI BOM_RMW BOM_R34_NE BOM_R34_SE BOM_R34_SW BOM_R34_NW BOM_R50_NE BOM_R50_SE BOM_R50_SW BOM_R50_NW BOM_R64_NE BOM_R64_SE BOM_R64_SW BOM_R64_NW BOM_ROCI BOM_POCI BOM_EYE BOM_POS_METHOD BOM_PRES_METHOD NADI_LAT NADI_LON NADI_CAT NADI_WIND NADI_PRES WELLINGTON_LAT WELLINGTON_LON WELLINGTON_WIND WELLINGTON_PRES DS824_LAT DS824_LON DS824_STAGE DS824_WIND DS824_PRES TD9636_LAT TD9636_LON TD9636_STAGE TD9636_WIND TD9636_PRES TD9635_LAT TD9635_LON TD9635_WIND TD9635_PRES TD9635_ROCI NEUMANN_LAT NEUMANN_LON NEUMANN_CLASS NEUMANN_WIND NEUMANN_PRES MLC_LAT MLC_LON MLC_CLASS MLC_WIND MLC_PRES USA_GUST BOM_GUST BOM_GUST_PER REUNION_GUST REUNION_GUST_PER USA_SEAHGT USA_SEARAD_NE USA_SEARAD_SE USA_SEARAD_SW USA_SEARAD_NW STORM_SPEED STORM_DIR
1975179N15250 1975 50 EP MM BRIDGET 1975-06-27 18:00:00 NR 14.5000 -110.000 main 763 763 __________O___ -1 14.5000 -110.000 1 30 2 237
1975179N15250 1975 50 EP MM BRIDGET 1975-06-27 21:00:00 NR 14.4432 -110.090 main 778 778 __________P___ -1 14.4432 -110.090 1 30 2 243
1975179N15250 1975 50 EP MM BRIDGET 1975-06-28 00:00:00 TS 14.4000 -110.200 30 hurdat_epa main 786 786 O________OO___ hurdat_epa EP021975 14.4000 -110.200 TD 30 -1 14.4000 -110.200 TC 30 14.4000 -110.200 1 30 3 258
1975179N15250 1975 50 EP MM BRIDGET 1975-06-28 03:00:00 TS 14.3817 -110.384 main 801 801 P________PP___ EP021975 14.3800 -110.402 TD 30 -1 14.3800 -110.402 TC 30 14.3850 -110.347 1 31 4 271
1975179N15250 1975 50 EP MM BRIDGET 1975-06-28 06:00:00 TS 14.4042 -110.583 30 hurdat_epa main 817 817 O________OP___ hurdat_epa EP021975 14.4000 -110.600 TD 30 -1 14.4000 -110.600 TC 30 14.4170 -110.532 1 32 4 287
1975179N15250 1975 50 EP MM BRIDGET 1975-06-28 09:00:00 TS 14.5010 -110.784 main 824 824 P________PP___ EP021975 14.4975 -110.793 TD 32 -1 14.4975 -110.793 TC 32 14.5154 -110.751 1 33 5 306
1975179N15250 1975 50 EP MM BRIDGET 1975-06-28 12:00:00 TS 14.7000 -111.000 35 hurdat_epa main 824 816 O________OO___ hurdat_epa EP021975 14.7000 -111.000 TS 35 0 14.7000 -111.000 TC 35 14.7000 -111.000 1 35 7 320
1975179N15250 1975 50 EP MM BRIDGET 1975-06-28 15:00:00 TS 15.0117 -111.233 main 817 811 P________PP___ EP021975 15.0124 -111.228 TS 37 0 15.0124 -111.228 TC 37 15.0089 -111.255 1 36 9 325
1975179N15250 1975 50 EP MM BRIDGET 1975-06-28 18:00:00 TS 15.3995 -111.508 40 hurdat_epa main 814 809 O________OP___ hurdat_epa EP021975 15.4000 -111.500 TS 40 0 15.4000 -111.500 TC 40 15.3973 -111.540 1 37 10 324
1975179N15250 1975 50 EP MM BRIDGET 1975-06-28 21:00:00 TS 15.8084 -111.839 main 814 784 P________PP___ EP021975 15.8075 -111.835 TS 40 0 15.8075 -111.835 TC 40 15.8120 -111.855 1 38 10 320
1975179N15250 1975 50 EP MM BRIDGET 1975-06-29 00:00:00 TS 16.2000 -112.200 40 hurdat_epa main 784 762 O________OO___ hurdat_epa EP021975 16.2000 -112.200 TS 40 0 16.2000 -112.200 TC 40 16.2000 -112.200 2 40 10 317
1975179N15250 1975 50 EP MM BRIDGET 1975-06-29 03:00:00 TS 16.5284 -112.542 main 762 742 P________PP___ EP021975 16.5299 -112.535 TS 42 0 16.5299 -112.535 TC 42 16.5224 -112.567 2 41 9 311
1975179N15250 1975 50 EP MM BRIDGET 1975-06-29 06:00:00 TS 16.8010 -112.912 45 hurdat_epa main 746 739 O________OP___ hurdat_epa EP021975 16.8000 -112.900 TS 45 0 16.8000 -112.900 TC 45 16.8049 -112.962 2 42 9 303
1975179N15250 1975 50 EP MM BRIDGET 1975-06-29 09:00:00 TS 17.0310 -113.349 main 744 739 P________PP___ EP021975 17.0300 -113.343 TS 45 0 17.0300 -113.343 TC 45 17.0349 -113.376 2 43 9 295
1975179N15250 1975 50 EP MM BRIDGET 1975-06-29 12:00:00 TS 17.2000 -113.800 45 hurdat_epa main 750 746 O________OO___ hurdat_epa EP021975 17.2000 -113.800 TS 45 0 17.2000 -113.800 TC 45 17.2000 -113.800 2 45 9 290
1975179N15250 1975 50 EP MM BRIDGET 1975-06-29 15:00:00 TS 17.3318 -114.205 main 764 761 P________PP___ EP021975 17.3373 -114.200 TS 45 0 17.3373 -114.200 TC 45 17.3099 -114.226 2 46 8 284
1975179N15250 1975 50 EP MM BRIDGET 1975-06-29 18:00:00 TS 17.3910 -114.612 45 hurdat_epa main 780 780 O________OP___ hurdat_epa EP021975 17.4000 -114.600 TS 45 0 17.4000 -114.600 TC 45 17.3549 -114.658 2 47 8 273
1975179N15250 1975 50 EP MM BRIDGET 1975-06-29 21:00:00 TS 17.3735 -115.057 main 813 813 P________PP___ EP021975 17.3800 -115.050 TS 47 0 17.3800 -115.050 TC 47 17.3474 -115.086 2 48 9 264
1975179N15250 1975 50 EP MM BRIDGET 1975-06-30 00:00:00 TS 17.3000 -115.500 50 hurdat_epa main 849 849 O________OO___ hurdat_epa EP021975 17.3000 -115.500 TS 50 0 17.3000 -115.500 TC 50 17.3000 -115.500 2 50 8 259
1975179N15250 1975 50 EP MM BRIDGET 1975-06-30 03:00:00 TS 17.2115 -115.917 main 886 886 P________PP___ EP021975 17.2074 -115.915 TS 50 0 17.2074 -115.915 TC 50 17.2278 -115.926 2 50 8 256
1975179N15250 1975 50 EP MM BRIDGET 1975-06-30 06:00:00 TS 17.1045 -116.307 50 hurdat_epa main 923 923 O________OP___ hurdat_epa EP021975 17.1000 -116.300 TS 50 0 17.1000 -116.300 TC 50 17.1226 -116.333 2 50 8 254
1975179N15250 1975 50 EP MM BRIDGET 1975-06-30 09:00:00 TS 16.9952 -116.690 main 961 961 P________PP___ EP021975 16.9925 -116.688 TS 50 0 16.9925 -116.688 TC 50 17.0061 -116.698 2 50 7 253
1975179N15250 1975 50 EP MM BRIDGET 1975-06-30 12:00:00 TS 16.9000 -117.000 50 hurdat_epa main 992 992 O________OO___ hurdat_epa EP021975 16.9000 -117.000 TS 50 0 16.9000 -117.000 TC 50 16.9000 -117.000 2 50 5 252
1975179N15250 1975 50 EP MM BRIDGET 1975-06-30 15:00:00 TS 16.8426 -117.183 main 1015 1015 P________PP___ EP021975 16.8424 -117.180 TS 52 0 16.8424 -117.180 TC 52 16.8432 -117.194 2 48 3 251
1975179N15250 1975 50 EP MM BRIDGET 1975-06-30 18:00:00 TS 16.7999 -117.306 55 hurdat_epa main 1023 1023 O________OP___ hurdat_epa EP021975 16.8000 -117.300 TS 55 0 16.8000 -117.300 TC 55 16.7993 -117.330 2 47 3 250
1975179N15250 1975 50 EP MM BRIDGET 1975-06-30 21:00:00 TS 16.7571 -117.432 main 1031 1031 P________PP___ EP021975 16.7574 -117.427 TS 50 0 16.7574 -117.427 TC 50 16.7558 -117.450 2 46 3 250
1975179N15250 1975 50 EP MM BRIDGET 1975-07-01 00:00:00 TS 16.7000 -117.600 45 hurdat_epa main 1054 1054 O________OO___ hurdat_epa EP021975 16.7000 -117.600 TS 45 0 16.7000 -117.600 TC 45 16.7000 -117.600 2 45 5 251
1975179N15250 1975 50 EP MM BRIDGET 1975-07-01 03:00:00 TS 16.6130 -117.877 main 1085 1085 P________PP___ EP021975 16.6076 -117.885 TS 45 0 16.6076 -117.885 TC 45 16.6348 -117.847 2 45 6 251
1975179N15250 1975 50 EP MM BRIDGET 1975-07-01 06:00:00 TS 16.5105 -118.185 45 hurdat_epa main 1114 1114 O________OP___ hurdat_epa EP021975 16.5000 -118.200 TS 45 0 16.5000 -118.200 TC 45 16.5527 -118.127 2 45 6 251
1975179N15250 1975 50 EP MM BRIDGET 1975-07-01 09:00:00 TS 16.4268 -118.456 main 1142 1142 P________PP___ EP021975 16.4225 -118.465 TS 45 0 16.4225 -118.465 TC 45 16.4442 -118.419 2 45 5 247
1975179N15250 1975 50 EP MM BRIDGET 1975-07-01 12:00:00 TS 16.3000 -118.700 45 hurdat_epa main 1163 1163 O________OO___ hurdat_epa EP021975 16.3000 -118.700 TS 45 0 16.3000 -118.700 TC 45 16.3000 -118.700 2 45 6 230
1975179N15250 1975 50 EP MM BRIDGET 1975-07-01 15:00:00 TS 16.0700 -118.906 main 1194 1194 P________PP___ EP021975 16.0649 -118.900 TS 45 0 16.0649 -118.900 TC 45 16.0904 -118.931 2 43 6 219
1975179N15250 1975 50 EP MM BRIDGET 1975-07-01 18:00:00 TS 15.8099 -119.110 45 hurdat_epa main 1233 1233 O________OP___ hurdat_epa EP021975 15.8000 -119.100 TS 45 0 15.8000 -119.100 TC 45 15.8497 -119.150 2 42 6 221
1975179N15250 1975 50 EP MM BRIDGET 1975-07-01 21:00:00 TS 15.5838 -119.348 main 1264 1264 P________PP___ EP021975 15.5775 -119.343 TS 42 0 15.5775 -119.343 TC 42 15.6092 -119.369 2 41 6 229
1975179N15250 1975 50 EP MM BRIDGET 1975-07-02 00:00:00 TS 15.4000 -119.600 40 hurdat_epa main 1301 1301 O________OO___ hurdat_epa EP021975 15.4000 -119.600 TS 40 0 15.4000 -119.600 TC 40 15.4000 -119.600 2 40 6 238
1975179N15250 1975 50 EP MM BRIDGET 1975-07-02 03:00:00 TS 15.2808 -119.846 main 1323 1323 P________PP___ EP021975 15.2849 -119.842 TS 35 0 15.2849 -119.842 TC 35 15.2640 -119.860 2 37 5 247
1975179N15250 1975 50 EP MM BRIDGET 1975-07-02 06:00:00 TS 15.1925 -120.107 30 hurdat_epa main 1351 1351 O________OP___ hurdat_epa EP021975 15.2000 -120.100 TD 30 -1 15.2000 -120.100 TC 30 15.1625 -120.135 2 35 6 251
1975179N15250 1975 50 EP MM BRIDGET 1975-07-02 09:00:00 TS 15.0959 -120.403 main 1379 1379 P________PP___ EP021975 15.1000 -120.400 TD 30 -1 15.1000 -120.400 TC 30 15.0797 -120.417 2 32 6 251
1975179N15250 1975 50 EP MM BRIDGET 1975-07-02 12:00:00 TS 15.0000 -120.700 30 hurdat_epa main 1408 1408 O________OO___ hurdat_epa EP021975 15.0000 -120.700 TD 30 -1 15.0000 -120.700 TC 30 15.0000 -120.700 1 30 6 250
1975179N15250 1975 50 EP MM BRIDGET 1975-07-02 15:00:00 TS 14.9021 -120.956 main 1437 1437 P________PP___ EP021975 14.8999 -120.950 TD 30 -1 14.8999 -120.950 TC 30 14.9110 -120.980 1 30 5 248
1975179N15250 1975 50 EP MM BRIDGET 1975-07-02 18:00:00 TS 14.8020 -121.209 30 hurdat_epa main 1459 1459 O________OP___ hurdat_epa EP021975 14.8000 -121.200 TD 30 -1 14.8000 -121.200 TC 30 14.8127 -121.255 1 30 6 249
1975179N15250 1975 50 EP MM BRIDGET 1975-07-02 21:00:00 TS 14.6943 -121.517 main 1488 1488 P________PP___ EP021975 14.6926 -121.515 TD 30 -1 14.6926 -121.515 TC 30 14.7080 -121.528 1 30 6 251
1975179N15250 1975 50 EP MM BRIDGET 1975-07-03 00:00:00 TS 14.6000 -121.800 30 hurdat_epa main 1517 1517 O________OO___ hurdat_epa EP021975 14.6000 -121.800 TD 30 -1 14.6000 -121.800 TC 30 14.6000 -121.800 1 30 5 251
1975179N15250 1975 50 EP MM BRIDGET 1975-07-03 03:00:00 TS 14.5424 -121.965 main 1540 1540 P________P____ EP021975 14.5424 -121.965 TD 27 -1 14.5424 -121.965 TC 27 1 3 251
1975179N15250 1975 50 EP MM BRIDGET 1975-07-03 06:00:00 TS 14.5000 -122.100 25 hurdat_epa main 1547 1547 O________O____ hurdat_epa EP021975 14.5000 -122.100 TD 25 -1 14.5000 -122.100 TC 25 1 3 254
1975179N15250 1975 50 EP MM BRIDGET 1975-07-03 09:00:00 TS 14.4526 -122.283 main 1561 1561 P________P____ EP021975 14.4526 -122.283 TD 25 -1 14.4526 -122.283 TC 25 1 4 256
1975179N15250 1975 50 EP MM BRIDGET 1975-07-03 12:00:00 TS 14.4000 -122.500 25 hurdat_epa main 1584 O________O____ hurdat_epa EP021975 14.4000 -122.500 TD 25 -1 14.4000 -122.500 TC 25 4 256

IBTrACS Databaseについて

本データベースは、米国NOAAが公開する1842年以降の世界の熱帯低気圧のベストトラックデータアーカイブInternational Best Track Archive for Climate Stewardship (IBTrACS)を、ウェブで閲覧しやすい形式に変換したものです。

最終更新日:2021-10-08